sensor_id;sensor_type;location;lat;lon;timestamp;P1;durP1;ratioP1;P2;durP2;ratioP2
18610;SDS011;9435;52.122;5.502;2023-02-12T00:02:07;37.60;;;17.08;;
18610;SDS011;9435;52.122;5.502;2023-02-12T00:04:34;36.78;;;16.75;;
18610;SDS011;9435;52.122;5.502;2023-02-12T00:07:02;33.10;;;16.02;;
18610;SDS011;9435;52.122;5.502;2023-02-12T00:09:29;37.50;;;17.08;;
18610;SDS011;9435;52.122;5.502;2023-02-12T00:11:58;39.08;;;16.70;;
18610;SDS011;9435;52.122;5.502;2023-02-12T00:14:25;35.63;;;16.35;;
18610;SDS011;9435;52.122;5.502;2023-02-12T00:16:52;36.72;;;16.98;;
18610;SDS011;9435;52.122;5.502;2023-02-12T00:19:19;41.22;;;17.08;;
18610;SDS011;9435;52.122;5.502;2023-02-12T00:21:46;40.78;;;17.38;;
18610;SDS011;9435;52.122;5.502;2023-02-12T00:24:13;37.67;;;16.75;;
18610;SDS011;9435;52.122;5.502;2023-02-12T00:26:40;39.83;;;16.63;;
18610;SDS011;9435;52.122;5.502;2023-02-12T00:29:09;37.83;;;17.48;;
18610;SDS011;9435;52.122;5.502;2023-02-12T00:31:36;41.83;;;17.67;;
18610;SDS011;9435;52.122;5.502;2023-02-12T00:34:03;36.42;;;17.00;;
18610;SDS011;9435;52.122;5.502;2023-02-12T00:36:30;43.80;;;18.17;;
18610;SDS011;9435;52.122;5.502;2023-02-12T00:38:59;38.92;;;17.70;;
18610;SDS011;9435;52.122;5.502;2023-02-12T00:41:26;37.33;;;18.13;;
18610;SDS011;9435;52.122;5.502;2023-02-12T00:43:53;42.65;;;18.80;;
18610;SDS011;9435;52.122;5.502;2023-02-12T00:46:22;40.10;;;18.77;;
18610;SDS011;9435;52.122;5.502;2023-02-12T00:48:49;41.33;;;18.65;;
18610;SDS011;9435;52.122;5.502;2023-02-12T00:51:16;46.10;;;18.98;;
18610;SDS011;9435;52.122;5.502;2023-02-12T00:53:43;40.60;;;18.33;;
18610;SDS011;9435;52.122;5.502;2023-02-12T00:56:10;41.97;;;19.00;;
18610;SDS011;9435;52.122;5.502;2023-02-12T00:58:37;43.13;;;18.88;;
18610;SDS011;9435;52.122;5.502;2023-02-12T01:01:04;36.88;;;18.45;;
18610;SDS011;9435;52.122;5.502;2023-02-12T01:03:33;45.55;;;18.92;;
18610;SDS011;9435;52.122;5.502;2023-02-12T01:06:00;46.08;;;19.58;;
18610;SDS011;9435;52.122;5.502;2023-02-12T01:08:27;44.53;;;20.08;;
18610;SDS011;9435;52.122;5.502;2023-02-12T01:10:54;41.95;;;19.85;;
18610;SDS011;9435;52.122;5.502;2023-02-12T01:13:22;43.28;;;20.13;;
18610;SDS011;9435;52.122;5.502;2023-02-12T01:15:59;42.63;;;19.60;;
18610;SDS011;9435;52.122;5.502;2023-02-12T01:18:27;41.08;;;19.15;;
18610;SDS011;9435;52.122;5.502;2023-02-12T01:20:55;41.35;;;19.67;;
18610;SDS011;9435;52.122;5.502;2023-02-12T01:23:23;36.17;;;17.90;;
18610;SDS011;9435;52.122;5.502;2023-02-12T01:25:50;41.28;;;19.30;;
18610;SDS011;9435;52.122;5.502;2023-02-12T01:28:17;43.15;;;19.98;;
18610;SDS011;9435;52.122;5.502;2023-02-12T01:30:44;43.25;;;19.85;;
18610;SDS011;9435;52.122;5.502;2023-02-12T01:33:11;44.20;;;19.48;;
18610;SDS011;9435;52.122;5.502;2023-02-12T01:35:39;39.50;;;20.02;;
18610;SDS011;9435;52.122;5.502;2023-02-12T01:38:07;47.92;;;21.65;;
18610;SDS011;9435;52.122;5.502;2023-02-12T01:40:34;44.72;;;20.48;;
18610;SDS011;9435;52.122;5.502;2023-02-12T01:43:02;40.65;;;19.90;;
18610;SDS011;9435;52.122;5.502;2023-02-12T01:48:21;40.38;;;19.30;;
18610;SDS011;9435;52.122;5.502;2023-02-12T01:50:50;44.88;;;19.77;;
18610;SDS011;9435;52.122;5.502;2023-02-12T01:53:19;42.88;;;20.02;;
18610;SDS011;9435;52.122;5.502;2023-02-12T01:55:52;40.80;;;20.05;;
18610;SDS011;9435;52.122;5.502;2023-02-12T01:58:23;43.78;;;20.35;;
18610;SDS011;9435;52.122;5.502;2023-02-12T02:00:52;38.15;;;18.88;;
18610;SDS011;9435;52.122;5.502;2023-02-12T02:03:19;41.00;;;19.20;;
18610;SDS011;9435;52.122;5.502;2023-02-12T02:05:48;38.97;;;18.90;;
18610;SDS011;9435;52.122;5.502;2023-02-12T02:08:22;39.65;;;19.10;;
18610;SDS011;9435;52.122;5.502;2023-02-12T02:10:49;43.42;;;19.95;;
18610;SDS011;9435;52.122;5.502;2023-02-12T02:13:16;40.05;;;19.40;;
18610;SDS011;9435;52.122;5.502;2023-02-12T02:16:01;38.60;;;19.33;;
18610;SDS011;9435;52.122;5.502;2023-02-12T02:18:35;38.03;;;19.50;;
18610;SDS011;9435;52.122;5.502;2023-02-12T02:21:21;38.10;;;18.88;;
18610;SDS011;9435;52.122;5.502;2023-02-12T02:24:45;35.78;;;18.15;;
18610;SDS011;9435;52.122;5.502;2023-02-12T02:27:29;35.80;;;17.90;;
18610;SDS011;9435;52.122;5.502;2023-02-12T02:30:15;36.50;;;18.35;;
18610;SDS011;9435;52.122;5.502;2023-02-12T02:33:12;38.95;;;18.38;;
18610;SDS011;9435;52.122;5.502;2023-02-12T02:35:48;39.17;;;18.95;;
18610;SDS011;9435;52.122;5.502;2023-02-12T02:38:25;39.70;;;19.02;;
18610;SDS011;9435;52.122;5.502;2023-02-12T02:41:00;40.63;;;19.83;;
18610;SDS011;9435;52.122;5.502;2023-02-12T02:43:32;41.80;;;19.60;;
18610;SDS011;9435;52.122;5.502;2023-02-12T02:46:06;38.67;;;19.48;;
18610;SDS011;9435;52.122;5.502;2023-02-12T02:48:36;37.08;;;18.13;;
18610;SDS011;9435;52.122;5.502;2023-02-12T02:51:08;39.63;;;20.00;;
18610;SDS011;9435;52.122;5.502;2023-02-12T02:53:38;40.28;;;19.10;;
18610;SDS011;9435;52.122;5.502;2023-02-12T02:56:10;38.95;;;19.60;;
18610;SDS011;9435;52.122;5.502;2023-02-12T02:58:40;46.50;;;20.98;;
18610;SDS011;9435;52.122;5.502;2023-02-12T03:01:13;42.47;;;19.55;;
18610;SDS011;9435;52.122;5.502;2023-02-12T03:03:45;43.03;;;20.60;;
18610;SDS011;9435;52.122;5.502;2023-02-12T03:06:19;46.15;;;21.52;;
18610;SDS011;9435;52.122;5.502;2023-02-12T03:08:49;51.55;;;22.63;;
18610;SDS011;9435;52.122;5.502;2023-02-12T03:11:22;49.92;;;22.60;;
18610;SDS011;9435;52.122;5.502;2023-02-12T03:13:53;48.00;;;23.27;;
18610;SDS011;9435;52.122;5.502;2023-02-12T03:16:26;44.08;;;21.10;;
18610;SDS011;9435;52.122;5.502;2023-02-12T03:18:58;48.65;;;22.70;;
18610;SDS011;9435;52.122;5.502;2023-02-12T03:21:32;44.97;;;21.73;;
18610;SDS011;9435;52.122;5.502;2023-02-12T03:24:06;40.85;;;20.63;;
18610;SDS011;9435;52.122;5.502;2023-02-12T03:26:39;44.33;;;21.10;;
18610;SDS011;9435;52.122;5.502;2023-02-12T03:29:11;42.85;;;20.77;;
18610;SDS011;9435;52.122;5.502;2023-02-12T03:31:43;45.15;;;21.35;;
18610;SDS011;9435;52.122;5.502;2023-02-12T03:34:21;42.17;;;21.23;;
18610;SDS011;9435;52.122;5.502;2023-02-12T03:36:56;44.35;;;21.65;;
18610;SDS011;9435;52.122;5.502;2023-02-12T03:39:29;51.78;;;23.70;;
18610;SDS011;9435;52.122;5.502;2023-02-12T03:42:02;49.47;;;23.17;;
18610;SDS011;9435;52.122;5.502;2023-02-12T03:44:37;51.30;;;24.38;;
18610;SDS011;9435;52.122;5.502;2023-02-12T03:47:16;54.70;;;24.30;;
18610;SDS011;9435;52.122;5.502;2023-02-12T03:49:56;49.03;;;23.55;;
18610;SDS011;9435;52.122;5.502;2023-02-12T03:52:27;51.45;;;23.00;;
18610;SDS011;9435;52.122;5.502;2023-02-12T03:54:55;44.35;;;21.42;;
18610;SDS011;9435;52.122;5.502;2023-02-12T03:57:23;46.20;;;20.63;;
18610;SDS011;9435;52.122;5.502;2023-02-12T03:59:55;42.30;;;20.02;;
18610;SDS011;9435;52.122;5.502;2023-02-12T04:02:25;40.75;;;19.48;;
18610;SDS011;9435;52.122;5.502;2023-02-12T04:04:53;41.28;;;20.23;;
18610;SDS011;9435;52.122;5.502;2023-02-12T04:07:20;38.78;;;19.83;;
18610;SDS011;9435;52.122;5.502;2023-02-12T04:09:47;42.38;;;19.80;;
18610;SDS011;9435;52.122;5.502;2023-02-12T04:12:19;48.35;;;22.05;;
18610;SDS011;9435;52.122;5.502;2023-02-12T04:14:59;48.88;;;23.00;;
18610;SDS011;9435;52.122;5.502;2023-02-12T04:17:39;48.25;;;22.42;;
18610;SDS011;9435;52.122;5.502;2023-02-12T04:20:15;44.70;;;22.42;;
18610;SDS011;9435;52.122;5.502;2023-02-12T04:22:51;50.80;;;23.23;;
18610;SDS011;9435;52.122;5.502;2023-02-12T04:25:27;53.17;;;24.08;;
18610;SDS011;9435;52.122;5.502;2023-02-12T04:28:09;48.40;;;22.80;;
18610;SDS011;9435;52.122;5.502;2023-02-12T04:30:41;47.20;;;23.08;;
18610;SDS011;9435;52.122;5.502;2023-02-12T04:33:15;46.75;;;22.88;;
18610;SDS011;9435;52.122;5.502;2023-02-12T04:35:47;50.88;;;23.42;;
18610;SDS011;9435;52.122;5.502;2023-02-12T04:38:18;52.10;;;23.50;;
18610;SDS011;9435;52.122;5.502;2023-02-12T04:40:48;46.97;;;23.00;;
18610;SDS011;9435;52.122;5.502;2023-02-12T04:43:25;53.40;;;24.92;;
18610;SDS011;9435;52.122;5.502;2023-02-12T04:45:53;50.33;;;23.55;;
18610;SDS011;9435;52.122;5.502;2023-02-12T04:48:22;45.70;;;22.10;;
18610;SDS011;9435;52.122;5.502;2023-02-12T04:50:49;46.58;;;22.27;;
18610;SDS011;9435;52.122;5.502;2023-02-12T04:53:16;43.92;;;21.30;;
18610;SDS011;9435;52.122;5.502;2023-02-12T04:55:43;45.60;;;22.73;;
18610;SDS011;9435;52.122;5.502;2023-02-12T04:58:12;46.00;;;21.67;;
18610;SDS011;9435;52.122;5.502;2023-02-12T05:00:39;49.97;;;23.48;;
18610;SDS011;9435;52.122;5.502;2023-02-12T05:03:06;46.08;;;22.25;;
18610;SDS011;9435;52.122;5.502;2023-02-12T05:05:34;45.92;;;21.58;;
18610;SDS011;9435;52.122;5.502;2023-02-12T05:08:01;45.17;;;22.55;;
18610;SDS011;9435;52.122;5.502;2023-02-12T05:10:28;46.33;;;22.17;;
18610;SDS011;9435;52.122;5.502;2023-02-12T05:12:55;45.58;;;22.52;;
18610;SDS011;9435;52.122;5.502;2023-02-12T05:15:22;46.72;;;22.52;;
18610;SDS011;9435;52.122;5.502;2023-02-12T05:17:50;46.35;;;22.83;;
18610;SDS011;9435;52.122;5.502;2023-02-12T05:20:17;48.08;;;23.42;;
18610;SDS011;9435;52.122;5.502;2023-02-12T05:22:45;50.30;;;24.02;;
18610;SDS011;9435;52.122;5.502;2023-02-12T05:25:17;44.60;;;22.85;;
18610;SDS011;9435;52.122;5.502;2023-02-12T05:27:44;46.15;;;22.98;;
18610;SDS011;9435;52.122;5.502;2023-02-12T05:30:11;53.95;;;23.65;;
18610;SDS011;9435;52.122;5.502;2023-02-12T05:32:39;46.17;;;22.65;;
18610;SDS011;9435;52.122;5.502;2023-02-12T05:35:06;45.92;;;22.45;;
18610;SDS011;9435;52.122;5.502;2023-02-12T05:37:34;51.05;;;25.45;;
18610;SDS011;9435;52.122;5.502;2023-02-12T05:40:03;52.90;;;25.90;;
18610;SDS011;9435;52.122;5.502;2023-02-12T05:42:30;54.42;;;25.85;;
18610;SDS011;9435;52.122;5.502;2023-02-12T05:44:57;57.03;;;25.40;;
18610;SDS011;9435;52.122;5.502;2023-02-12T05:47:24;48.25;;;23.35;;
18610;SDS011;9435;52.122;5.502;2023-02-12T05:49:51;48.58;;;23.17;;
18610;SDS011;9435;52.122;5.502;2023-02-12T05:52:18;52.83;;;24.63;;
18610;SDS011;9435;52.122;5.502;2023-02-12T05:54:47;49.28;;;23.38;;
18610;SDS011;9435;52.122;5.502;2023-02-12T05:57:16;54.72;;;24.73;;
18610;SDS011;9435;52.122;5.502;2023-02-12T05:59:43;53.47;;;25.25;;
18610;SDS011;9435;52.122;5.502;2023-02-12T06:02:10;56.70;;;25.95;;
18610;SDS011;9435;52.122;5.502;2023-02-12T06:04:37;54.90;;;25.88;;
18610;SDS011;9435;52.122;5.502;2023-02-12T06:07:04;57.97;;;27.05;;
18610;SDS011;9435;52.122;5.502;2023-02-12T06:09:32;57.38;;;26.88;;
18610;SDS011;9435;52.122;5.502;2023-02-12T06:12:00;53.53;;;25.00;;
18610;SDS011;9435;52.122;5.502;2023-02-12T06:14:28;52.55;;;24.88;;
18610;SDS011;9435;52.122;5.502;2023-02-12T06:16:55;57.05;;;25.73;;
18610;SDS011;9435;52.122;5.502;2023-02-12T06:19:22;54.83;;;25.38;;
18610;SDS011;9435;52.122;5.502;2023-02-12T06:21:50;55.30;;;25.42;;
18610;SDS011;9435;52.122;5.502;2023-02-12T06:24:17;52.40;;;25.05;;
18610;SDS011;9435;52.122;5.502;2023-02-12T06:26:44;53.55;;;24.85;;
18610;SDS011;9435;52.122;5.502;2023-02-12T06:29:14;50.35;;;23.85;;
18610;SDS011;9435;52.122;5.502;2023-02-12T06:31:43;52.83;;;24.65;;
18610;SDS011;9435;52.122;5.502;2023-02-12T06:34:10;53.60;;;24.63;;
18610;SDS011;9435;52.122;5.502;2023-02-12T06:36:41;52.92;;;24.55;;
18610;SDS011;9435;52.122;5.502;2023-02-12T06:39:10;51.45;;;24.65;;
18610;SDS011;9435;52.122;5.502;2023-02-12T06:41:37;53.88;;;25.08;;
18610;SDS011;9435;52.122;5.502;2023-02-12T06:44:05;54.85;;;25.08;;
18610;SDS011;9435;52.122;5.502;2023-02-12T06:46:32;52.55;;;25.50;;
18610;SDS011;9435;52.122;5.502;2023-02-12T06:49:00;54.05;;;25.42;;
18610;SDS011;9435;52.122;5.502;2023-02-12T06:51:28;55.00;;;23.83;;
18610;SDS011;9435;52.122;5.502;2023-02-12T06:53:56;53.92;;;24.83;;
18610;SDS011;9435;52.122;5.502;2023-02-12T06:56:24;51.78;;;25.08;;
18610;SDS011;9435;52.122;5.502;2023-02-12T06:58:52;51.42;;;24.85;;
18610;SDS011;9435;52.122;5.502;2023-02-12T07:01:22;57.42;;;25.98;;
18610;SDS011;9435;52.122;5.502;2023-02-12T07:03:51;56.47;;;25.50;;
18610;SDS011;9435;52.122;5.502;2023-02-12T07:06:21;50.63;;;24.35;;
18610;SDS011;9435;52.122;5.502;2023-02-12T07:08:49;55.75;;;24.50;;
18610;SDS011;9435;52.122;5.502;2023-02-12T07:11:16;50.60;;;24.55;;
18610;SDS011;9435;52.122;5.502;2023-02-12T07:13:44;52.08;;;23.63;;
18610;SDS011;9435;52.122;5.502;2023-02-12T07:16:12;54.63;;;25.23;;
18610;SDS011;9435;52.122;5.502;2023-02-12T07:18:43;55.50;;;23.67;;
18610;SDS011;9435;52.122;5.502;2023-02-12T07:21:11;48.22;;;23.15;;
18610;SDS011;9435;52.122;5.502;2023-02-12T07:23:41;47.00;;;22.60;;
18610;SDS011;9435;52.122;5.502;2023-02-12T07:26:13;50.28;;;23.52;;
18610;SDS011;9435;52.122;5.502;2023-02-12T07:28:40;48.63;;;23.42;;
18610;SDS011;9435;52.122;5.502;2023-02-12T07:31:09;49.47;;;23.60;;
18610;SDS011;9435;52.122;5.502;2023-02-12T07:33:38;48.90;;;24.00;;
18610;SDS011;9435;52.122;5.502;2023-02-12T07:36:07;48.38;;;23.15;;
18610;SDS011;9435;52.122;5.502;2023-02-12T07:38:36;51.20;;;24.58;;
18610;SDS011;9435;52.122;5.502;2023-02-12T07:41:06;50.47;;;24.02;;
18610;SDS011;9435;52.122;5.502;2023-02-12T07:43:38;49.85;;;24.65;;
18610;SDS011;9435;52.122;5.502;2023-02-12T07:46:09;49.10;;;23.90;;
18610;SDS011;9435;52.122;5.502;2023-02-12T07:48:37;53.08;;;25.38;;
18610;SDS011;9435;52.122;5.502;2023-02-12T07:51:05;46.08;;;22.48;;
18610;SDS011;9435;52.122;5.502;2023-02-12T07:53:34;49.58;;;23.02;;
18610;SDS011;9435;52.122;5.502;2023-02-12T07:56:05;48.28;;;22.30;;
18610;SDS011;9435;52.122;5.502;2023-02-12T07:58:36;43.92;;;22.05;;
18610;SDS011;9435;52.122;5.502;2023-02-12T08:01:10;48.17;;;23.10;;
18610;SDS011;9435;52.122;5.502;2023-02-12T08:03:38;51.55;;;23.45;;
18610;SDS011;9435;52.122;5.502;2023-02-12T08:06:06;49.40;;;23.10;;
18610;SDS011;9435;52.122;5.502;2023-02-12T08:08:34;49.60;;;23.20;;
18610;SDS011;9435;52.122;5.502;2023-02-12T08:11:03;47.97;;;23.15;;
18610;SDS011;9435;52.122;5.502;2023-02-12T08:13:32;46.28;;;21.85;;
18610;SDS011;9435;52.122;5.502;2023-02-12T08:16:01;43.45;;;21.58;;
18610;SDS011;9435;52.122;5.502;2023-02-12T08:18:29;42.78;;;22.05;;
18610;SDS011;9435;52.122;5.502;2023-02-12T08:21:00;45.63;;;21.90;;
18610;SDS011;9435;52.122;5.502;2023-02-12T08:23:28;45.05;;;22.20;;
18610;SDS011;9435;52.122;5.502;2023-02-12T08:26:03;48.22;;;23.35;;
18610;SDS011;9435;52.122;5.502;2023-02-12T08:28:33;43.15;;;21.23;;
18610;SDS011;9435;52.122;5.502;2023-02-12T08:31:00;42.08;;;21.30;;
18610;SDS011;9435;52.122;5.502;2023-02-12T08:33:30;42.65;;;21.30;;
18610;SDS011;9435;52.122;5.502;2023-02-12T08:36:01;42.40;;;21.92;;
18610;SDS011;9435;52.122;5.502;2023-02-12T08:38:30;41.40;;;20.75;;
18610;SDS011;9435;52.122;5.502;2023-02-12T08:41:01;41.42;;;20.85;;
18610;SDS011;9435;52.122;5.502;2023-02-12T08:43:30;40.92;;;20.75;;
18610;SDS011;9435;52.122;5.502;2023-02-12T08:46:02;41.67;;;20.90;;
18610;SDS011;9435;52.122;5.502;2023-02-12T08:48:30;44.70;;;21.13;;
18610;SDS011;9435;52.122;5.502;2023-02-12T08:51:02;39.15;;;19.75;;
18610;SDS011;9435;52.122;5.502;2023-02-12T08:53:30;37.95;;;19.58;;
18610;SDS011;9435;52.122;5.502;2023-02-12T08:55:57;43.78;;;21.00;;
18610;SDS011;9435;52.122;5.502;2023-02-12T08:58:25;42.42;;;20.58;;
18610;SDS011;9435;52.122;5.502;2023-02-12T09:00:52;41.45;;;20.63;;
18610;SDS011;9435;52.122;5.502;2023-02-12T09:03:20;44.08;;;21.50;;
18610;SDS011;9435;52.122;5.502;2023-02-12T09:05:47;42.45;;;21.08;;
18610;SDS011;9435;52.122;5.502;2023-02-12T09:08:15;39.95;;;20.60;;
18610;SDS011;9435;52.122;5.502;2023-02-12T09:10:42;44.42;;;22.02;;
18610;SDS011;9435;52.122;5.502;2023-02-12T09:13:10;44.03;;;22.30;;
18610;SDS011;9435;52.122;5.502;2023-02-12T09:15:38;42.05;;;21.45;;
18610;SDS011;9435;52.122;5.502;2023-02-12T09:18:06;44.38;;;21.10;;
18610;SDS011;9435;52.122;5.502;2023-02-12T09:20:37;41.08;;;21.08;;
18610;SDS011;9435;52.122;5.502;2023-02-12T09:23:05;39.60;;;20.23;;
18610;SDS011;9435;52.122;5.502;2023-02-12T09:25:32;37.50;;;19.58;;
18610;SDS011;9435;52.122;5.502;2023-02-12T09:28:00;40.95;;;20.95;;
18610;SDS011;9435;52.122;5.502;2023-02-12T09:30:27;36.28;;;19.65;;
18610;SDS011;9435;52.122;5.502;2023-02-12T09:32:54;42.58;;;20.63;;
18610;SDS011;9435;52.122;5.502;2023-02-12T09:35:22;39.47;;;20.88;;
18610;SDS011;9435;52.122;5.502;2023-02-12T09:37:50;39.97;;;20.20;;
18610;SDS011;9435;52.122;5.502;2023-02-12T09:40:19;44.08;;;21.73;;
18610;SDS011;9435;52.122;5.502;2023-02-12T09:42:51;37.55;;;19.95;;
18610;SDS011;9435;52.122;5.502;2023-02-12T09:45:31;39.20;;;19.10;;
18610;SDS011;9435;52.122;5.502;2023-02-12T09:48:06;40.20;;;20.35;;
18610;SDS011;9435;52.122;5.502;2023-02-12T09:50:56;38.00;;;19.02;;
18610;SDS011;9435;52.122;5.502;2023-02-12T09:53:27;39.03;;;19.83;;
18610;SDS011;9435;52.122;5.502;2023-02-12T09:55:56;36.47;;;19.48;;
18610;SDS011;9435;52.122;5.502;2023-02-12T09:58:28;41.17;;;20.05;;
18610;SDS011;9435;52.122;5.502;2023-02-12T10:00:59;40.15;;;20.25;;
18610;SDS011;9435;52.122;5.502;2023-02-12T10:03:27;36.88;;;19.98;;
18610;SDS011;9435;52.122;5.502;2023-02-12T10:05:57;39.63;;;20.38;;
18610;SDS011;9435;52.122;5.502;2023-02-12T10:08:42;38.50;;;19.42;;
18610;SDS011;9435;52.122;5.502;2023-02-12T10:11:29;38.60;;;19.88;;
18610;SDS011;9435;52.122;5.502;2023-02-12T10:14:11;40.28;;;20.63;;
18610;SDS011;9435;52.122;5.502;2023-02-12T10:16:51;40.33;;;20.33;;
18610;SDS011;9435;52.122;5.502;2023-02-12T10:19:30;41.20;;;20.52;;
18610;SDS011;9435;52.122;5.502;2023-02-12T10:22:12;42.50;;;21.48;;
18610;SDS011;9435;52.122;5.502;2023-02-12T10:27:43;40.55;;;20.58;;
18610;SDS011;9435;52.122;5.502;2023-02-12T10:30:19;42.00;;;21.45;;
18610;SDS011;9435;52.122;5.502;2023-02-12T10:32:50;41.92;;;21.10;;
18610;SDS011;9435;52.122;5.502;2023-02-12T10:35:20;43.20;;;22.10;;
18610;SDS011;9435;52.122;5.502;2023-02-12T10:37:50;41.40;;;21.17;;
18610;SDS011;9435;52.122;5.502;2023-02-12T10:40:24;42.33;;;21.67;;
18610;SDS011;9435;52.122;5.502;2023-02-12T10:42:54;41.92;;;21.27;;
18610;SDS011;9435;52.122;5.502;2023-02-12T10:45:23;37.00;;;19.98;;
18610;SDS011;9435;52.122;5.502;2023-02-12T10:48:03;45.00;;;21.92;;
18610;SDS011;9435;52.122;5.502;2023-02-12T10:50:41;40.17;;;20.15;;
18610;SDS011;9435;52.122;5.502;2023-02-12T10:53:16;38.83;;;20.05;;
18610;SDS011;9435;52.122;5.502;2023-02-12T10:55:48;42.58;;;21.75;;
18610;SDS011;9435;52.122;5.502;2023-02-12T10:58:29;38.35;;;20.65;;
18610;SDS011;9435;52.122;5.502;2023-02-12T11:00:56;38.97;;;20.60;;
18610;SDS011;9435;52.122;5.502;2023-02-12T11:03:27;41.25;;;20.55;;
18610;SDS011;9435;52.122;5.502;2023-02-12T11:06:07;39.13;;;20.40;;
18610;SDS011;9435;52.122;5.502;2023-02-12T11:08:37;44.00;;;22.42;;
18610;SDS011;9435;52.122;5.502;2023-02-12T11:11:07;40.67;;;20.67;;
18610;SDS011;9435;52.122;5.502;2023-02-12T11:13:38;41.78;;;21.13;;
18610;SDS011;9435;52.122;5.502;2023-02-12T11:16:10;40.25;;;20.90;;
18610;SDS011;9435;52.122;5.502;2023-02-12T11:18:38;40.75;;;20.92;;
18610;SDS011;9435;52.122;5.502;2023-02-12T11:21:06;44.65;;;21.65;;
18610;SDS011;9435;52.122;5.502;2023-02-12T11:23:36;40.33;;;20.88;;
18610;SDS011;9435;52.122;5.502;2023-02-12T11:26:05;39.50;;;20.70;;
18610;SDS011;9435;52.122;5.502;2023-02-12T11:28:52;42.83;;;20.58;;
18610;SDS011;9435;52.122;5.502;2023-02-12T11:31:22;41.30;;;21.02;;
18610;SDS011;9435;52.122;5.502;2023-02-12T11:34:05;36.90;;;20.50;;
18610;SDS011;9435;52.122;5.502;2023-02-12T11:36:35;41.95;;;20.92;;
18610;SDS011;9435;52.122;5.502;2023-02-12T11:39:03;40.92;;;21.48;;
18610;SDS011;9435;52.122;5.502;2023-02-12T11:41:34;44.38;;;22.23;;
18610;SDS011;9435;52.122;5.502;2023-02-12T11:44:08;43.13;;;21.13;;
18610;SDS011;9435;52.122;5.502;2023-02-12T11:46:37;41.13;;;21.45;;
18610;SDS011;9435;52.122;5.502;2023-02-12T11:49:05;41.08;;;21.70;;
18610;SDS011;9435;52.122;5.502;2023-02-12T11:51:34;41.83;;;21.42;;
18610;SDS011;9435;52.122;5.502;2023-02-12T11:54:03;39.72;;;20.83;;
18610;SDS011;9435;52.122;5.502;2023-02-12T11:56:41;42.55;;;21.90;;
18610;SDS011;9435;52.122;5.502;2023-02-12T11:59:17;41.15;;;21.00;;
18610;SDS011;9435;52.122;5.502;2023-02-12T12:01:54;41.10;;;21.38;;
18610;SDS011;9435;52.122;5.502;2023-02-12T12:04:25;40.53;;;20.67;;
18610;SDS011;9435;52.122;5.502;2023-02-12T12:06:56;47.45;;;22.63;;
18610;SDS011;9435;52.122;5.502;2023-02-12T12:09:27;41.63;;;20.60;;
18610;SDS011;9435;52.122;5.502;2023-02-12T12:12:03;36.47;;;19.27;;
18610;SDS011;9435;52.122;5.502;2023-02-12T12:14:41;41.03;;;20.23;;
18610;SDS011;9435;52.122;5.502;2023-02-12T12:17:32;39.05;;;20.15;;
18610;SDS011;9435;52.122;5.502;2023-02-12T12:20:21;40.95;;;20.30;;
18610;SDS011;9435;52.122;5.502;2023-02-12T12:22:53;36.58;;;19.45;;
18610;SDS011;9435;52.122;5.502;2023-02-12T12:25:25;36.85;;;19.02;;
18610;SDS011;9435;52.122;5.502;2023-02-12T12:27:58;36.03;;;19.42;;
18610;SDS011;9435;52.122;5.502;2023-02-12T12:30:42;36.80;;;18.80;;
18610;SDS011;9435;52.122;5.502;2023-02-12T12:33:21;41.30;;;19.92;;
18610;SDS011;9435;52.122;5.502;2023-02-12T12:35:59;39.05;;;18.98;;
18610;SDS011;9435;52.122;5.502;2023-02-12T12:38:41;39.08;;;18.83;;
18610;SDS011;9435;52.122;5.502;2023-02-12T12:41:16;34.25;;;17.92;;
18610;SDS011;9435;52.122;5.502;2023-02-12T12:43:54;35.42;;;18.13;;
18610;SDS011;9435;52.122;5.502;2023-02-12T12:46:48;34.83;;;17.90;;
18610;SDS011;9435;52.122;5.502;2023-02-12T12:49:31;33.10;;;17.05;;
18610;SDS011;9435;52.122;5.502;2023-02-12T12:52:13;33.92;;;17.67;;
18610;SDS011;9435;52.122;5.502;2023-02-12T12:55:10;31.83;;;17.33;;
18610;SDS011;9435;52.122;5.502;2023-02-12T12:57:50;30.80;;;15.63;;
18610;SDS011;9435;52.122;5.502;2023-02-12T13:00:39;30.70;;;16.20;;
18610;SDS011;9435;52.122;5.502;2023-02-12T13:09:39;30.90;;;16.58;;
18610;SDS011;9435;52.122;5.502;2023-02-12T13:12:32;30.52;;;15.65;;
18610;SDS011;9435;52.122;5.502;2023-02-12T13:15:11;32.00;;;16.13;;
18610;SDS011;9435;52.122;5.502;2023-02-12T13:17:46;30.70;;;15.90;;
18610;SDS011;9435;52.122;5.502;2023-02-12T13:20:18;31.63;;;16.60;;
18610;SDS011;9435;52.122;5.502;2023-02-12T13:22:50;31.80;;;16.15;;
18610;SDS011;9435;52.122;5.502;2023-02-12T13:25:23;29.63;;;16.02;;
18610;SDS011;9435;52.122;5.502;2023-02-12T13:27:56;29.67;;;16.08;;
18610;SDS011;9435;52.122;5.502;2023-02-12T13:30:27;29.85;;;16.38;;
18610;SDS011;9435;52.122;5.502;2023-02-12T13:33:00;31.58;;;15.75;;
18610;SDS011;9435;52.122;5.502;2023-02-12T13:35:31;29.27;;;15.40;;
18610;SDS011;9435;52.122;5.502;2023-02-12T13:38:02;31.23;;;16.05;;
18610;SDS011;9435;52.122;5.502;2023-02-12T13:40:32;31.75;;;16.02;;
18610;SDS011;9435;52.122;5.502;2023-02-12T13:43:03;30.05;;;15.90;;
18610;SDS011;9435;52.122;5.502;2023-02-12T13:45:41;29.65;;;16.55;;
18610;SDS011;9435;52.122;5.502;2023-02-12T13:48:20;32.45;;;16.85;;
18610;SDS011;9435;52.122;5.502;2023-02-12T13:51:00;31.77;;;16.70;;
18610;SDS011;9435;52.122;5.502;2023-02-12T13:53:40;37.55;;;17.38;;
18610;SDS011;9435;52.122;5.502;2023-02-12T13:56:26;30.23;;;15.77;;
18610;SDS011;9435;52.122;5.502;2023-02-12T13:59:00;30.63;;;16.33;;
18610;SDS011;9435;52.122;5.502;2023-02-12T14:01:40;31.23;;;16.48;;
18610;SDS011;9435;52.122;5.502;2023-02-12T14:06:58;28.05;;;15.18;;
18610;SDS011;9435;52.122;5.502;2023-02-12T14:09:33;27.92;;;15.00;;
18610;SDS011;9435;52.122;5.502;2023-02-12T14:12:03;27.05;;;14.48;;
18610;SDS011;9435;52.122;5.502;2023-02-12T14:14:33;24.50;;;13.48;;
18610;SDS011;9435;52.122;5.502;2023-02-12T14:20:07;24.23;;;13.18;;
18610;SDS011;9435;52.122;5.502;2023-02-12T14:25:59;27.95;;;13.52;;
18610;SDS011;9435;52.122;5.502;2023-02-12T14:31:28;24.33;;;12.57;;
18610;SDS011;9435;52.122;5.502;2023-02-12T14:37:31;22.52;;;11.50;;
18610;SDS011;9435;52.122;5.502;2023-02-12T14:43:02;22.45;;;12.32;;
18610;SDS011;9435;52.122;5.502;2023-02-12T14:45:48;27.10;;;13.77;;
18610;SDS011;9435;52.122;5.502;2023-02-12T14:51:05;23.70;;;12.38;;
18610;SDS011;9435;52.122;5.502;2023-02-12T14:53:39;29.05;;;12.82;;
18610;SDS011;9435;52.122;5.502;2023-02-12T14:56:07;23.77;;;12.10;;
18610;SDS011;9435;52.122;5.502;2023-02-12T14:58:37;24.30;;;12.82;;
18610;SDS011;9435;52.122;5.502;2023-02-12T15:01:05;24.40;;;11.95;;
18610;SDS011;9435;52.122;5.502;2023-02-12T15:03:36;24.77;;;12.93;;
18610;SDS011;9435;52.122;5.502;2023-02-12T15:06:09;24.05;;;12.25;;
18610;SDS011;9435;52.122;5.502;2023-02-12T15:08:42;26.67;;;13.27;;
18610;SDS011;9435;52.122;5.502;2023-02-12T15:11:19;24.20;;;12.38;;
18610;SDS011;9435;52.122;5.502;2023-02-12T15:13:56;23.48;;;12.43;;
18610;SDS011;9435;52.122;5.502;2023-02-12T15:16:32;25.05;;;11.93;;
18610;SDS011;9435;52.122;5.502;2023-02-12T15:19:11;24.55;;;12.43;;
18610;SDS011;9435;52.122;5.502;2023-02-12T15:21:45;24.45;;;12.55;;
18610;SDS011;9435;52.122;5.502;2023-02-12T15:24:13;26.70;;;13.27;;
18610;SDS011;9435;52.122;5.502;2023-02-12T15:26:48;26.08;;;12.48;;
18610;SDS011;9435;52.122;5.502;2023-02-12T15:29:23;24.48;;;12.75;;
18610;SDS011;9435;52.122;5.502;2023-02-12T15:31:53;26.73;;;12.93;;
18610;SDS011;9435;52.122;5.502;2023-02-12T15:34:22;24.75;;;12.25;;